Time;durP1;ratioP1;P1;durP2;ratioP2;P2;SDS_P1;SDS_P2;PMS_P1;PMS_P2;Temp;Humidity;BMP_temperature;BMP_pressure;BME280_temperature;BME280_humidity;BME280_pressure;Samples;Min_cycle;Max_cycle;Signal;HPM_P1;HPM_P2
2021/12/07 00:01:30;;;;;;;0.00;0.00;;;2.40;99.90;;;;;;4961079;28;20097;-69
2021/12/07 00:03:56;;;;;;;0.25;0.25;;;2.40;99.90;;;;;;4958536;28;20581;-70
2021/12/07 00:06:23;;;;;;;0.10;0.10;;;2.30;99.90;;;;;;4959237;28;20102;-70
2021/12/07 00:08:54;;;;;;;0.28;0.28;;;2.30;99.90;;;;;;4960382;28;20043;-70
2021/12/07 00:11:21;;;;;;;0.00;0.00;;;2.30;99.90;;;;;;4942594;28;20054;-69
2021/12/07 00:13:46;;;;;;;0.10;0.10;;;2.30;99.90;;;;;;4959805;28;20050;-69
2021/12/07 00:16:13;;;;;;;0.10;0.10;;;2.20;99.90;;;;;;4941914;28;20051;-69
2021/12/07 00:18:40;;;;;;;0.00;0.00;;;2.20;99.90;;;;;;4959543;28;20057;-69
2021/12/07 00:21:07;;;;;;;0.00;0.00;;;2.90;99.90;;;;;;4942973;28;20046;-69
2021/12/07 00:23:33;;;;;;;0.00;0.00;;;2.10;99.90;;;;;;4942269;28;20526;-70
2021/12/07 00:25:59;;;;;;;0.00;0.00;;;2.00;99.90;;;;;;4959920;28;20058;-70
2021/12/07 00:28:25;;;;;;;0.00;0.00;;;2.00;99.90;;;;;;4942977;28;20073;-70
2021/12/07 00:30:52;;;;;;;0.00;0.00;;;1.90;99.90;;;;;;4959869;28;20417;-70
2021/12/07 00:33:35;;;;;;;0.00;0.00;;;1.90;99.90;;;;;;4957936;28;20078;-70
2021/12/07 00:36:01;;;;;;;0.00;0.00;;;1.90;99.90;;;;;;4960077;28;20051;-70
2021/12/07 00:38:27;;;;;;;0.00;0.00;;;2.50;99.90;;;;;;4959818;28;20069;-71
2021/12/07 00:40:55;;;;;;;0.03;0.03;;;1.70;99.90;;;;;;4958508;28;20038;-71
2021/12/07 00:43:22;;;;;;;0.03;0.03;;;1.70;99.90;;;;;;4942292;28;20054;-71
2021/12/07 00:45:49;;;;;;;0.00;0.00;;;1.70;99.90;;;;;;4959831;28;20053;-71
2021/12/07 00:48:16;;;;;;;0.00;0.00;;;1.70;99.90;;;;;;4941091;28;20054;-71
2021/12/07 00:50:47;;;;;;;0.00;0.00;;;1.60;99.90;;;;;;4942058;28;20062;-71
2021/12/07 00:53:14;;;;;;;0.00;0.00;;;1.50;99.90;;;;;;4959419;28;20149;-71
2021/12/07 00:55:43;;;;;;;0.00;0.00;;;1.50;99.90;;;;;;4942707;28;20031;-71
2021/12/07 00:58:18;;;;;;;0.00;0.00;;;1.40;99.90;;;;;;4942345;28;20061;-71
2021/12/07 01:00:46;;;;;;;0.00;0.00;;;1.40;99.90;;;;;;4959244;28;20046;-70
2021/12/07 01:03:12;;;;;;;0.00;0.00;;;2.00;99.90;;;;;;4956940;28;20054;-71
2021/12/07 01:05:40;;;;;;;0.00;0.00;;;2.30;99.90;;;;;;4950776;28;20101;-71
2021/12/07 01:27:04;;;;;;;0.00;0.00;;;1.80;99.90;;;;;;4957366;28;20051;-71
2021/12/07 01:29:30;;;;;;;0.43;0.43;;;1.10;99.90;;;;;;4926427;28;20504;-70
2021/12/07 01:32:11;;;;;;;0.00;0.00;;;1.10;99.90;;;;;;4959438;28;20398;-70
2021/12/07 01:40:10;;;;;;;0.00;0.00;;;1.10;99.90;;;;;;4958587;28;20050;-70
2021/12/07 02:00:54;;;;;;;0.00;0.00;;;0.90;99.90;;;;;;4958529;28;20056;-70
2021/12/07 02:03:20;;;;;;;0.20;0.20;;;0.90;99.90;;;;;;4938813;28;20051;-71
2021/12/07 02:05:47;;;;;;;0.00;0.00;;;0.90;99.90;;;;;;4958597;28;20086;-71
2021/12/07 02:08:13;;;;;;;0.00;0.00;;;0.80;99.90;;;;;;4958989;28;20055;-71
2021/12/07 02:10:39;;;;;;;0.00;0.00;;;0.70;99.90;;;;;;4958963;28;20421;-71
2021/12/07 02:13:18;;;;;;;0.00;0.00;;;0.70;99.90;;;;;;4957561;28;20039;-70
2021/12/07 02:15:44;;;;;;;0.20;0.20;;;0.70;99.90;;;;;;4961260;28;20049;-71
2021/12/07 02:18:09;;;;;;;0.00;0.00;;;0.60;99.90;;;;;;4944028;28;20050;-72
2021/12/07 02:20:35;;;;;;;0.60;0.55;;;0.60;99.90;;;;;;4960583;28;20059;-74
2021/12/07 02:23:01;;;;;;;0.00;0.00;;;1.80;99.90;;;;;;4962747;28;20105;-73
2021/12/07 02:25:28;;;;;;;0.00;0.00;;;0.50;99.90;;;;;;4961080;28;20055;-74
2021/12/07 02:27:55;;;;;;;0.00;0.00;;;0.50;99.90;;;;;;4961341;28;20477;-74
2021/12/07 02:30:23;;;;;;;0.00;0.00;;;0.40;99.90;;;;;;4962514;28;20133;-73
2021/12/07 02:32:52;;;;;;;0.28;0.28;;;0.40;99.90;;;;;;4961401;28;20070;-73
2021/12/07 02:35:24;;;;;;;0.00;0.00;;;0.40;99.90;;;;;;4944920;28;20831;-70
2021/12/07 02:37:51;;;;;;;0.00;0.00;;;0.30;99.90;;;;;;4961648;28;20090;-71
2021/12/07 02:40:17;;;;;;;0.00;0.00;;;0.30;99.90;;;;;;4961721;28;20100;-72
2021/12/07 02:42:44;;;;;;;0.00;0.00;;;0.30;99.90;;;;;;4928736;28;20388;-73
2021/12/07 02:45:10;;;;;;;0.00;0.00;;;0.30;99.90;;;;;;4961115;28;20047;-70
2021/12/07 02:47:36;;;;;;;0.00;0.00;;;0.30;99.90;;;;;;4961746;28;20508;-73
2021/12/07 02:50:06;;;;;;;0.00;0.00;;;0.50;99.90;;;;;;4944570;28;20038;-73
2021/12/07 02:52:32;;;;;;;0.00;0.00;;;-0.10;99.90;;;;;;4960566;28;20058;-73
2021/12/07 02:54:58;;;;;;;0.00;0.00;;;0.30;99.90;;;;;;4960250;28;20110;-73
2021/12/07 02:57:23;;;;;;;0.00;0.00;;;0.30;99.90;;;;;;4960448;28;20438;-73
2021/12/07 02:59:59;;;;;;;0.00;0.00;;;0.30;99.90;;;;;;4961395;28;20046;-73
2021/12/07 03:02:25;;;;;;;0.10;0.10;;;0.30;99.90;;;;;;4960073;28;20631;-73
2021/12/07 03:06:05;;;;;;;0.08;0.08;;;0.30;99.90;;;;;;4960347;28;20417;-73
2021/12/07 03:26:41;;;;;;;0.00;0.00;;;0.40;99.90;;;;;;4943400;28;20470;-74
2021/12/07 03:29:07;;;;;;;0.00;0.00;;;0.40;99.90;;;;;;4942815;28;20042;-74
2021/12/07 03:31:33;;;;;;;0.00;0.00;;;0.40;99.90;;;;;;4960829;28;20042;-74
2021/12/07 03:34:01;;;;;;;0.00;0.00;;;0.40;99.90;;;;;;4960278;28;20059;-73
2021/12/07 03:36:27;;;;;;;0.00;0.00;;;0.40;99.90;;;;;;4960884;28;20090;-74
2021/12/07 03:38:54;;;;;;;0.00;0.00;;;0.40;99.90;;;;;;4960079;28;20046;-74
2021/12/07 03:41:21;;;;;;;0.00;0.00;;;0.40;99.90;;;;;;4943423;28;20138;-74
2021/12/07 03:43:48;;;;;;;0.00;0.00;;;0.30;99.90;;;;;;4960402;28;20114;-75
2021/12/07 03:46:13;;;;;;;0.00;0.00;;;0.30;99.90;;;;;;4942672;28;20053;-74
2021/12/07 03:48:41;;;;;;;0.00;0.00;;;0.40;99.90;;;;;;4943154;28;20043;-74
2021/12/07 03:51:07;;;;;;;0.00;0.00;;;0.40;99.90;;;;;;4942790;28;20053;-74
2021/12/07 03:53:34;;;;;;;0.10;0.10;;;0.40;99.90;;;;;;4960672;28;20113;-75
2021/12/07 03:56:00;;;;;;;0.30;0.30;;;0.40;99.90;;;;;;4960415;28;20089;-74
2021/12/07 03:58:26;;;;;;;0.25;0.25;;;0.40;99.90;;;;;;4960523;28;20049;-74
2021/12/07 04:00:51;;;;;;;0.00;0.00;;;0.40;99.90;;;;;;4960465;28;20043;-74
2021/12/07 04:03:19;;;;;;;0.00;0.00;;;1.20;99.90;;;;;;4958853;28;20043;-74
2021/12/07 04:05:49;;;;;;;0.00;0.00;;;0.70;99.90;;;;;;4960179;28;20109;-74
2021/12/07 04:08:19;;;;;;;0.00;0.00;;;0.50;99.90;;;;;;4960595;28;20050;-74
2021/12/07 04:10:44;;;;;;;0.00;0.00;;;0.50;99.90;;;;;;4942943;28;20062;-74
2021/12/07 04:13:11;;;;;;;0.00;0.00;;;0.60;99.90;;;;;;4959069;28;20070;-74
2021/12/07 04:15:37;;;;;;;0.10;0.10;;;0.90;99.90;;;;;;4960900;28;20039;-74
2021/12/07 04:18:04;;;;;;;0.00;0.00;;;0.50;99.90;;;;;;4959905;28;20061;-69
2021/12/07 04:20:30;;;;;;;0.00;0.00;;;0.60;99.90;;;;;;4960083;28;20504;-74
2021/12/07 04:22:56;;;;;;;0.00;0.00;;;0.90;99.90;;;;;;4960515;28;20035;-74
2021/12/07 04:25:23;;;;;;;0.00;0.00;;;0.60;99.90;;;;;;4942588;28;20051;-71
2021/12/07 04:27:53;;;;;;;0.00;0.00;;;0.60;99.90;;;;;;4960215;28;20560;-72
2021/12/07 04:30:32;;;;;;;0.10;0.10;;;0.60;99.90;;;;;;4942116;28;20073;-73
2021/12/07 04:32:59;;;;;;;0.00;0.00;;;0.60;99.90;;;;;;4959472;28;20054;-72
2021/12/07 04:35:25;;;;;;;0.00;0.00;;;0.60;99.90;;;;;;4942685;28;20130;-72
2021/12/07 04:37:51;;;;;;;0.00;0.00;;;0.70;99.90;;;;;;4957869;28;20102;-73
2021/12/07 04:40:21;;;;;;;0.25;0.25;;;0.70;99.90;;;;;;4942300;28;20070;-74
2021/12/07 04:42:47;;;;;;;0.20;0.20;;;0.70;99.90;;;;;;4942568;28;20050;-75
2021/12/07 04:46:02;;;;;;;0.00;0.00;;;0.70;99.90;;;;;;4959185;28;20039;-75
2021/12/07 04:48:31;;;;;;;0.00;0.00;;;0.70;99.90;;;;;;4953578;28;20085;-74
2021/12/07 04:59:11;;;;;;;0.00;0.00;;;0.70;99.90;;;;;;4941654;28;20055;-75
2021/12/07 05:01:37;;;;;;;0.00;0.00;;;0.90;99.90;;;;;;4959626;28;20509;-74
2021/12/07 05:04:10;;;;;;;0.00;0.00;;;0.70;99.90;;;;;;4940413;28;20046;-74
2021/12/07 05:06:41;;;;;;;0.05;0.05;;;0.70;99.90;;;;;;4941257;28;20418;-74
2021/12/07 05:09:29;;;;;;;0.10;0.10;;;0.70;99.90;;;;;;4942212;28;20054;-71
2021/12/07 05:14:43;;;;;;;0.15;0.15;;;0.60;99.90;;;;;;4910274;28;20129;-74
2021/12/07 05:17:40;;;;;;;0.00;0.00;;;0.70;99.90;;;;;;4942493;28;20050;-74
2021/12/07 05:39:15;;;;;;;0.00;0.00;;;0.50;99.90;;;;;;4959702;28;20055;-74
2021/12/07 05:41:41;;;;;;;0.03;0.03;;;0.50;99.90;;;;;;4958829;28;20046;-74
2021/12/07 05:44:07;;;;;;;0.00;0.00;;;0.50;99.90;;;;;;4958917;28;20725;-74
2021/12/07 05:46:33;;;;;;;0.00;0.00;;;0.50;99.90;;;;;;4942146;28;20051;-75
2021/12/07 05:48:58;;;;;;;0.00;0.00;;;0.40;99.90;;;;;;4942631;28;20081;-74
2021/12/07 05:51:24;;;;;;;0.00;0.00;;;0.40;99.90;;;;;;4945371;28;20062;-74
2021/12/07 05:53:50;;;;;;;0.00;0.00;;;0.40;99.90;;;;;;4962320;28;20047;-71
2021/12/07 05:56:15;;;;;;;0.00;0.00;;;0.40;99.90;;;;;;4945853;28;20840;-71
2021/12/07 05:58:41;;;;;;;0.00;0.00;;;0.40;99.90;;;;;;4962627;28;20043;-71
2021/12/07 06:01:07;;;;;;;0.00;0.00;;;0.40;99.90;;;;;;4962525;28;20043;-71
2021/12/07 06:03:34;;;;;;;0.13;0.13;;;0.40;99.90;;;;;;4943544;28;20059;-71
2021/12/07 06:06:03;;;;;;;0.30;0.30;;;0.40;99.90;;;;;;4945021;28;20050;-71
2021/12/07 06:08:30;;;;;;;0.00;0.00;;;0.40;99.90;;;;;;4945723;28;20045;-73
2021/12/07 06:10:56;;;;;;;0.00;0.00;;;0.40;99.90;;;;;;4944628;28;20042;-74
2021/12/07 06:13:22;;;;;;;0.00;0.00;;;0.40;99.90;;;;;;4928841;28;20047;-74
2021/12/07 06:15:48;;;;;;;0.00;0.00;;;0.40;99.90;;;;;;4961981;28;20042;-74
2021/12/07 06:18:14;;;;;;;0.00;0.00;;;0.40;99.90;;;;;;4944645;28;20090;-73
2021/12/07 06:20:41;;;;;;;0.00;0.00;;;0.40;99.90;;;;;;4944471;28;20128;-74
2021/12/07 06:23:12;;;;;;;0.00;0.00;;;0.40;99.90;;;;;;4961011;28;20387;-73
2021/12/07 06:25:38;;;;;;;0.00;0.00;;;0.40;99.90;;;;;;4962004;28;20078;-73
2021/12/07 06:28:04;;;;;;;0.00;0.00;;;0.50;99.90;;;;;;4961744;28;20046;-74
2021/12/07 06:30:30;;;;;;;0.17;0.17;;;0.60;99.90;;;;;;4945021;28;20074;-72
2021/12/07 06:32:56;;;;;;;0.00;0.00;;;0.40;99.90;;;;;;4943878;28;20058;-73
2021/12/07 06:35:22;;;;;;;0.00;0.00;;;0.40;99.90;;;;;;4944945;28;20244;-73
2021/12/07 06:37:47;;;;;;;0.00;0.00;;;0.40;99.90;;;;;;4961215;28;20054;-73
2021/12/07 06:40:13;;;;;;;0.00;0.00;;;1.10;99.90;;;;;;4962058;28;20065;-73
2021/12/07 06:42:40;;;;;;;0.00;0.00;;;0.40;99.90;;;;;;4944717;28;20058;-73
2021/12/07 06:45:10;;;;;;;0.00;0.00;;;0.30;99.90;;;;;;4944720;28;20042;-72
2021/12/07 06:47:37;;;;;;;0.00;0.00;;;0.30;99.90;;;;;;4943317;28;20078;-72
2021/12/07 06:50:08;;;;;;;0.00;0.00;;;0.30;99.90;;;;;;4961614;28;20066;-73
2021/12/07 06:52:34;;;;;;;0.00;0.00;;;0.30;99.90;;;;;;4961774;28;20051;-72
2021/12/07 06:55:01;;;;;;;0.00;0.00;;;0.30;99.90;;;;;;4960694;28;20113;-72
2021/12/07 06:57:27;;;;;;;0.00;0.00;;;0.40;99.90;;;;;;4944432;28;20050;-72
2021/12/07 06:59:53;;;;;;;0.00;0.00;;;0.30;99.90;;;;;;4943627;28;20311;-72
2021/12/07 07:02:19;;;;;;;0.00;0.00;;;0.40;99.90;;;;;;4960094;28;20486;-72
2021/12/07 07:04:45;;;;;;;0.00;0.00;;;0.40;99.90;;;;;;4960317;28;20046;-72
2021/12/07 07:07:11;;;;;;;0.00;0.00;;;0.30;99.90;;;;;;4961371;28;20050;-71
2021/12/07 07:09:36;;;;;;;0.10;0.10;;;0.30;99.90;;;;;;4961656;28;20078;-71
2021/12/07 07:12:02;;;;;;;0.03;0.03;;;0.40;99.90;;;;;;4959692;28;20074;-71
2021/12/07 07:14:28;;;;;;;0.00;0.00;;;0.40;99.90;;;;;;4927749;28;20093;-71
2021/12/07 07:16:54;;;;;;;0.00;0.00;;;0.40;99.90;;;;;;4960697;28;20059;-69
2021/12/07 07:19:19;;;;;;;0.00;0.00;;;0.50;99.90;;;;;;4960740;28;20054;-71
2021/12/07 07:21:45;;;;;;;0.80;0.80;;;0.50;99.90;;;;;;4942713;28;20575;-71
2021/12/07 07:24:11;;;;;;;0.00;0.00;;;0.50;99.90;;;;;;4943653;28;20505;-72
2021/12/07 07:26:36;;;;;;;0.00;0.00;;;0.50;99.90;;;;;;4959827;28;20043;-71
2021/12/07 07:29:03;;;;;;;0.00;0.00;;;0.50;99.90;;;;;;4961323;28;20046;-72
2021/12/07 07:31:29;;;;;;;0.00;0.00;;;0.50;99.90;;;;;;4943144;28;20506;-71
2021/12/07 07:33:55;;;;;;;0.00;0.00;;;1.10;99.90;;;;;;4942152;28;20061;-72
2021/12/07 07:36:21;;;;;;;0.00;0.00;;;0.50;99.90;;;;;;4943824;28;20040;-69
2021/12/07 07:38:47;;;;;;;0.00;0.00;;;1.50;99.90;;;;;;4960975;28;20051;-68
2021/12/07 07:41:13;;;;;;;0.00;0.00;;;1.60;99.90;;;;;;4942535;28;20589;-69
2021/12/07 07:43:38;;;;;;;0.00;0.00;;;1.20;99.90;;;;;;4961092;28;20378;-69
2021/12/07 07:46:04;;;;;;;0.00;0.00;;;0.50;99.90;;;;;;4943365;28;20545;-70
2021/12/07 07:48:30;;;;;;;0.00;0.00;;;0.50;99.90;;;;;;4942682;28;20512;-69
2021/12/07 07:50:56;;;;;;;0.00;0.00;;;0.50;99.90;;;;;;4959668;28;20097;-69
2021/12/07 07:53:22;;;;;;;0.00;0.00;;;0.60;99.90;;;;;;4960592;28;20767;-69
2021/12/07 07:55:50;;;;;;;0.63;0.63;;;0.60;99.90;;;;;;4943446;28;20042;-68
2021/12/07 07:58:17;;;;;;;0.00;0.00;;;0.70;99.90;;;;;;4959468;28;20113;-69
2021/12/07 08:00:44;;;;;;;0.10;0.10;;;0.70;99.90;;;;;;4943230;28;20446;-69
2021/12/07 08:03:10;;;;;;;0.30;0.28;;;0.70;99.90;;;;;;4954781;28;20038;-70
2021/12/07 08:05:36;;;;;;;0.00;0.00;;;0.70;99.90;;;;;;4943012;28;20047;-70
2021/12/07 08:08:01;;;;;;;0.00;0.00;;;0.80;99.90;;;;;;4959454;28;20398;-69
2021/12/07 08:10:28;;;;;;;0.00;0.00;;;0.80;99.90;;;;;;4960351;28;20051;-69
2021/12/07 08:12:59;;;;;;;0.10;0.10;;;0.80;99.90;;;;;;4960240;28;20046;-70
2021/12/07 08:15:27;;;;;;;0.60;0.60;;;0.80;99.90;;;;;;4942196;28;20055;-69
2021/12/07 08:17:54;;;;;;;0.00;0.00;;;0.90;99.90;;;;;;4959337;28;20050;-69
2021/12/07 08:20:19;;;;;;;0.10;0.10;;;1.30;99.90;;;;;;4959999;28;20426;-73
2021/12/07 08:22:46;;;;;;;0.00;0.00;;;0.90;99.90;;;;;;4942913;28;20182;-72
2021/12/07 08:25:12;;;;;;;0.10;0.10;;;1.00;99.90;;;;;;4959072;28;20086;-72
2021/12/07 08:27:38;;;;;;;0.10;0.10;;;1.00;99.90;;;;;;4959847;28;20046;-72
2021/12/07 08:30:07;;;;;;;0.05;0.05;;;1.00;99.90;;;;;;4959894;28;20046;-72
2021/12/07 08:32:33;;;;;;;0.00;0.00;;;1.10;99.90;;;;;;4958810;28;20125;-73
2021/12/07 08:34:58;;;;;;;0.00;0.00;;;1.10;99.90;;;;;;4960186;28;20174;-73
2021/12/07 08:37:24;;;;;;;0.00;0.00;;;0.90;99.90;;;;;;4942439;28;20573;-73
2021/12/07 08:39:49;;;;;;;0.00;0.00;;;2.50;99.90;;;;;;4959951;28;20038;-72
2021/12/07 08:42:15;;;;;;;0.00;0.00;;;0.40;99.90;;;;;;4959037;28;20100;-73
2021/12/07 08:44:41;;;;;;;1.08;0.47;;;1.20;99.90;;;;;;4926158;28;20096;-71
2021/12/07 08:47:07;;;;;;;0.00;0.00;;;1.20;99.90;;;;;;4959060;28;20087;-72
2021/12/07 08:49:33;;;;;;;0.00;0.00;;;1.20;99.90;;;;;;4942741;28;20088;-72
2021/12/07 08:52:00;;;;;;;0.00;0.00;;;1.60;99.90;;;;;;4957528;28;20114;-74
2021/12/07 08:59:46;;;;;;;0.00;0.00;;;1.60;99.90;;;;;;4959903;28;20504;-69
2021/12/07 09:02:18;;;;;;;0.00;0.00;;;1.70;99.90;;;;;;4958355;28;20042;-71
2021/12/07 09:04:44;;;;;;;0.00;0.00;;;1.70;99.90;;;;;;4940901;28;20058;-67
2021/12/07 09:07:10;;;;;;;0.00;0.00;;;1.90;99.90;;;;;;4959381;28;20667;-74
2021/12/07 09:09:36;;;;;;;0.00;0.00;;;2.80;99.90;;;;;;4960144;28;20046;-75
2021/12/07 09:12:06;;;;;;;0.00;0.00;;;1.90;99.90;;;;;;4960192;28;20058;-76
2021/12/07 09:14:33;;;;;;;0.00;0.00;;;1.90;99.90;;;;;;4959585;28;20078;-75
2021/12/07 09:17:00;;;;;;;0.00;0.00;;;2.00;99.90;;;;;;4958982;28;20038;-74
2021/12/07 09:19:26;;;;;;;0.00;0.00;;;2.10;99.90;;;;;;4959488;28;20066;-74
2021/12/07 09:21:52;;;;;;;0.00;0.00;;;2.20;99.90;;;;;;4959110;28;20043;-75
2021/12/07 09:24:18;;;;;;;0.00;0.00;;;2.40;99.90;;;;;;4960914;28;20628;-74
2021/12/07 09:26:43;;;;;;;0.00;0.00;;;2.40;99.90;;;;;;4963626;28;20489;-73
2021/12/07 09:29:09;;;;;;;0.00;0.00;;;2.60;99.90;;;;;;4946554;28;20050;-74
2021/12/07 09:31:36;;;;;;;0.00;0.00;;;2.90;99.90;;;;;;4962470;28;20429;-68
2021/12/07 09:34:02;;;;;;;0.00;0.00;;;3.60;99.90;;;;;;4963831;28;20125;-74
2021/12/07 09:36:29;;;;;;;0.20;0.20;;;4.20;99.90;;;;;;4946856;28;20046;-75
2021/12/07 09:38:55;;;;;;;0.10;0.10;;;4.60;99.90;;;;;;4963506;28;20055;-74
2021/12/07 09:41:21;;;;;;;0.00;0.00;;;4.80;99.90;;;;;;4962445;28;20097;-74
2021/12/07 09:43:48;;;;;;;0.00;0.00;;;5.00;99.90;;;;;;4945973;28;20108;-73
2021/12/07 09:46:15;;;;;;;0.00;0.00;;;5.00;99.90;;;;;;4963710;28;20129;-73
2021/12/07 09:48:42;;;;;;;0.00;0.00;;;4.70;99.90;;;;;;4944897;28;20078;-69
2021/12/07 09:51:09;;;;;;;0.00;0.00;;;5.60;99.90;;;;;;4946038;28;20143;-73
2021/12/07 09:53:35;;;;;;;0.10;0.10;;;5.20;99.90;;;;;;4963370;28;20126;-74
2021/12/07 09:56:05;;;;;;;0.00;0.00;;;5.20;99.90;;;;;;4946619;28;20129;-75
2021/12/07 09:58:30;;;;;;;0.00;0.00;;;5.60;99.90;;;;;;4963156;28;20051;-74
2021/12/07 10:00:57;;;;;;;0.00;0.00;;;5.50;99.90;;;;;;4962498;28;20054;-73
2021/12/07 10:03:23;;;;;;;0.00;0.00;;;5.30;99.90;;;;;;4961885;28;20093;-75
2021/12/07 10:05:50;;;;;;;0.00;0.00;;;5.80;99.90;;;;;;4962736;28;20070;-70
2021/12/07 10:08:16;;;;;;;0.10;0.10;;;5.40;99.90;;;;;;4962897;28;20062;-74
2021/12/07 10:10:46;;;;;;;0.00;0.00;;;5.40;99.90;;;;;;4945039;28;20334;-73
2021/12/07 10:13:13;;;;;;;0.10;0.10;;;5.30;99.90;;;;;;4961102;28;20063;-73
2021/12/07 10:15:39;;;;;;;0.00;0.00;;;5.30;99.90;;;;;;4961838;28;20039;-72
2021/12/07 10:18:17;;;;;;;0.00;0.00;;;5.40;99.90;;;;;;4961537;28;20144;-72
2021/12/07 10:20:49;;;;;;;0.00;0.00;;;5.60;99.90;;;;;;4945247;28;20291;-70
2021/12/07 10:23:21;;;;;;;0.10;0.10;;;5.40;99.90;;;;;;4962093;28;20685;-71
2021/12/07 10:25:56;;;;;;;0.00;0.00;;;7.20;99.90;;;;;;4945191;28;20047;-70
2021/12/07 10:28:27;;;;;;;0.00;0.00;;;5.30;99.90;;;;;;4961550;28;20047;-70
2021/12/07 10:30:53;;;;;;;0.43;0.43;;;4.60;99.90;;;;;;4962400;28;20524;-72
2021/12/07 10:33:32;;;;;;;0.00;0.00;;;4.20;99.90;;;;;;4961385;28;20074;-70
2021/12/07 10:36:28;;;;;;;0.00;0.00;;;4.00;99.90;;;;;;4960709;28;20047;-64
2021/12/07 10:39:03;;;;;;;0.00;0.00;;;4.00;99.90;;;;;;4944146;28;20054;-66
2021/12/07 10:41:33;;;;;;;0.00;0.00;;;4.20;99.90;;;;;;4944766;28;20405;-62
2021/12/07 10:44:07;;;;;;;0.80;0.30;;;5.20;99.90;;;;;;4962129;28;20138;-72
2021/12/07 10:46:52;;;;;;;0.00;0.00;;;6.00;99.90;;;;;;4943828;28;20601;-72
2021/12/07 10:49:21;;;;;;;0.00;0.00;;;6.60;99.90;;;;;;4944366;28;20043;-62
2021/12/07 10:52:13;;;;;;;0.10;0.10;;;6.90;99.90;;;;;;4961951;28;20053;-62
2021/12/07 10:54:39;;;;;;;0.00;0.00;;;7.00;99.90;;;;;;4961819;28;20050;-74
2021/12/07 10:57:07;;;;;;;0.00;0.00;;;7.30;99.90;;;;;;4943700;28;20158;-73
2021/12/07 10:59:33;;;;;;;0.00;0.00;;;7.50;99.90;;;;;;4938535;28;20057;-73
2021/12/07 11:02:11;;;;;;;0.00;0.00;;;7.60;99.90;;;;;;4961069;28;20055;-72
2021/12/07 11:04:37;;;;;;;0.15;0.15;;;7.70;99.90;;;;;;4946627;28;20153;-73
2021/12/07 11:07:20;;;;;;;0.00;0.00;;;7.50;99.90;;;;;;4962293;28;20141;-72
2021/12/07 11:10:04;;;;;;;0.00;0.00;;;7.10;99.90;;;;;;4962940;28;20050;-71
2021/12/07 11:12:41;;;;;;;0.00;0.00;;;7.20;99.90;;;;;;4942117;28;20058;-71
2021/12/07 11:15:14;;;;;;;0.00;0.00;;;7.10;99.90;;;;;;4963158;28;20050;-72
2021/12/07 11:17:40;;;;;;;0.00;0.00;;;7.40;99.90;;;;;;4962789;28;20056;-71
2021/12/07 11:20:07;;;;;;;15.32;1.50;;;7.70;99.90;;;;;;4979883;28;20046;-72
2021/12/07 11:22:36;;;;;;;0.00;0.00;;;7.60;99.90;;;;;;4963229;28;20042;-72
2021/12/07 11:25:04;;;;;;;0.00;0.00;;;9.30;99.90;;;;;;4963360;28;20053;-70
2021/12/07 11:30:18;;;;;;;0.00;0.00;;;8.20;99.90;;;;;;4962921;28;20093;-71
2021/12/07 11:32:48;;;;;;;0.00;0.00;;;8.10;99.90;;;;;;4961550;28;20050;-71
2021/12/07 11:35:26;;;;;;;0.00;0.00;;;8.00;99.90;;;;;;4979254;28;20082;-72
2021/12/07 11:37:58;;;;;;;0.00;0.00;;;7.80;99.90;;;;;;4962720;28;20130;-72
2021/12/07 11:40:33;;;;;;;0.00;0.00;;;7.50;99.90;;;;;;4962262;28;20053;-71
2021/12/07 11:43:00;;;;;;;0.00;0.00;;;7.50;99.90;;;;;;4962825;28;20436;-71
2021/12/07 11:45:31;;;;;;;0.00;0.00;;;7.30;99.90;;;;;;4980080;28;20141;-71
2021/12/07 11:48:02;;;;;;;0.00;0.00;;;7.20;99.90;;;;;;4960406;28;20059;-71
2021/12/07 11:50:42;;;;;;;0.00;0.00;;;7.10;99.90;;;;;;4963165;28;20702;-71
2021/12/07 11:53:14;;;;;;;0.00;0.00;;;7.00;99.90;;;;;;4962142;28;20520;-71
2021/12/07 11:55:44;;;;;;;0.00;0.00;;;7.10;99.90;;;;;;4961495;28;20046;-70
2021/12/07 11:58:10;;;;;;;0.30;0.10;;;6.60;99.90;;;;;;4944659;28;20065;-71
2021/12/07 12:00:40;;;;;;;0.00;0.00;;;6.10;99.90;;;;;;4960659;28;20401;-71
2021/12/07 12:03:08;;;;;;;0.00;0.00;;;6.10;99.90;;;;;;4940308;28;20057;-71
2021/12/07 12:05:36;;;;;;;0.00;0.00;;;6.60;99.90;;;;;;4942492;28;20532;-72
2021/12/07 12:08:08;;;;;;;0.00;0.00;;;6.30;99.90;;;;;;4960044;28;20312;-71
2021/12/07 12:10:40;;;;;;;0.00;0.00;;;6.30;99.90;;;;;;4941413;28;20047;-72
2021/12/07 12:13:43;;;;;;;0.00;0.00;;;6.30;99.90;;;;;;4941991;28;20419;-71
2021/12/07 12:16:30;;;;;;;0.00;0.00;;;6.20;99.90;;;;;;4940500;28;20038;-72
2021/12/07 12:19:33;;;;;;;0.00;0.00;;;6.10;99.90;;;;;;4956222;28;20461;-71
2021/12/07 12:22:23;;;;;;;0.00;0.00;;;6.20;99.90;;;;;;4940757;28;20565;-71
2021/12/07 12:24:52;;;;;;;0.00;0.00;;;6.10;99.90;;;;;;4925207;28;20516;-71
2021/12/07 12:27:27;;;;;;;0.00;0.00;;;5.90;99.90;;;;;;4941716;28;20047;-71
2021/12/07 12:29:55;;;;;;;0.10;0.10;;;5.90;99.90;;;;;;4919585;29;20283;-71
2021/12/07 12:32:43;;;;;;;0.00;0.00;;;6.00;99.90;;;;;;4933685;28;20061;-72
2021/12/07 12:35:11;;;;;;;0.00;0.00;;;6.50;99.90;;;;;;4949024;28;20544;-70
2021/12/07 12:37:37;;;;;;;0.00;0.00;;;6.20;99.90;;;;;;4949626;28;20038;-71
2021/12/07 12:40:10;;;;;;;0.00;0.00;;;6.20;99.90;;;;;;4958059;28;20050;-71
2021/12/07 12:42:42;;;;;;;0.00;0.00;;;6.30;99.90;;;;;;4973897;28;20093;-65
2021/12/07 12:45:32;;;;;;;0.05;0.05;;;6.20;99.90;;;;;;4940363;28;20062;-66
2021/12/07 12:48:17;;;;;;;0.00;0.00;;;6.20;99.90;;;;;;4957527;28;20071;-74
2021/12/07 12:50:42;;;;;;;0.00;0.00;;;6.00;99.90;;;;;;4940686;28;20051;-71
2021/12/07 12:53:11;;;;;;;0.00;0.00;;;6.00;99.90;;;;;;4941319;28;20068;-69
2021/12/07 12:55:43;;;;;;;0.00;0.00;;;6.00;99.90;;;;;;4967394;28;20086;-70
2021/12/07 12:58:14;;;;;;;0.00;0.00;;;6.00;99.90;;;;;;4941391;28;20054;-72
2021/12/07 13:00:59;;;;;;;0.00;0.00;;;6.00;99.90;;;;;;4942182;28;20046;-72
2021/12/07 13:03:25;;;;;;;0.00;0.00;;;5.90;99.90;;;;;;4940612;28;20053;-70
2021/12/07 13:06:00;;;;;;;0.00;0.00;;;5.80;99.90;;;;;;4929070;28;20142;-70
2021/12/07 13:08:26;;;;;;;;;;;5.70;99.90;;;;;;4939031;29;20055;-69
2021/12/07 13:10:56;;;;;;;0.00;0.00;;;5.70;99.90;;;;;;4921659;29;20017;-69
2021/12/07 13:13:35;;;;;;;0.00;0.00;;;5.60;99.90;;;;;;4922449;29;20055;-69
2021/12/07 13:16:16;;;;;;;0.00;0.00;;;5.60;99.90;;;;;;4937820;28;20103;-69
2021/12/07 13:18:43;;;;;;;0.00;0.00;;;5.50;99.90;;;;;;4938569;29;20157;-70
2021/12/07 13:21:23;;;;;;;0.00;0.00;;;6.00;99.90;;;;;;4938858;29;21036;-70
2021/12/07 13:24:11;;;;;;;0.00;0.00;;;5.40;99.90;;;;;;4922853;29;20145;-71
2021/12/07 13:26:50;;;;;;;0.00;0.00;;;5.30;99.90;;;;;;4923177;29;20095;-71
2021/12/07 13:29:22;;;;;;;0.00;0.00;;;5.30;99.90;;;;;;4939670;29;20062;-71
2021/12/07 13:31:52;;;;;;;0.10;0.10;;;5.30;99.90;;;;;;4938031;28;20461;-71
2021/12/07 13:34:31;;;;;;;0.00;0.00;;;5.30;99.90;;;;;;4939056;29;20058;-74
2021/12/07 13:36:59;;;;;;;0.00;0.00;;;5.30;99.90;;;;;;4940103;29;20059;-69
2021/12/07 13:39:25;;;;;;;0.00;0.00;;;5.40;99.90;;;;;;4939991;29;20052;-75
2021/12/07 13:42:20;;;;;;;0.00;0.00;;;6.30;99.90;;;;;;4938711;29;20047;-72
2021/12/07 13:44:56;;;;;;;0.00;0.00;;;5.60;99.90;;;;;;4922719;29;20051;-74
2021/12/07 13:47:37;;;;;;;0.00;0.00;;;6.00;99.90;;;;;;4920706;29;20051;-73
2021/12/07 13:50:24;;;;;;;0.00;0.00;;;5.70;99.90;;;;;;4922447;29;20435;-65
2021/12/07 13:52:52;;;;;;;0.00;0.00;;;5.60;99.90;;;;;;4939551;29;20074;-67
2021/12/07 13:55:26;;;;;;;0.45;0.45;;;5.60;99.90;;;;;;4938963;29;20067;-68
2021/12/07 13:57:53;;;;;;;0.00;0.00;;;5.40;99.90;;;;;;4939197;29;20043;-67
2021/12/07 14:00:31;;;;;;;0.00;0.00;;;5.20;99.90;;;;;;4939661;29;20050;-67
2021/12/07 14:03:09;;;;;;;0.05;0.05;;;5.00;99.90;;;;;;4944074;28;20405;-68
2021/12/07 14:05:37;;;;;;;0.00;0.00;;;5.00;99.90;;;;;;4938751;28;20055;-67
2021/12/07 14:08:06;;;;;;;0.00;0.00;;;4.80;99.90;;;;;;4937425;28;20050;-68
2021/12/07 14:10:41;;;;;;;0.00;0.00;;;4.70;99.90;;;;;;4923671;28;20054;-66
2021/12/07 14:13:07;;;;;;;;;;;4.70;99.90;;;;;;4957470;28;20057;-68
2021/12/07 14:15:39;;;;;;;0.10;0.10;;;4.70;99.90;;;;;;4958666;28;19922;-67
2021/12/07 14:18:12;;;;;;;0.00;0.00;;;4.60;99.90;;;;;;4957506;28;20047;-67
2021/12/07 14:20:50;;;;;;;0.00;0.00;;;4.60;99.90;;;;;;4932046;28;20051;-66
2021/12/07 14:23:38;;;;;;;0.00;0.00;;;4.60;99.90;;;;;;4958242;28;20413;-66
2021/12/07 14:26:15;;;;;;;0.00;0.00;;;4.50;99.90;;;;;;4940384;28;20051;-67
2021/12/07 14:28:44;;;;;;;0.00;0.00;;;4.50;99.90;;;;;;4957574;28;20070;-66
2021/12/07 14:31:24;;;;;;;0.00;0.00;;;4.50;99.90;;;;;;4938034;28;20038;-66
2021/12/07 14:34:00;;;;;;;0.00;0.00;;;4.40;99.90;;;;;;4956933;28;20493;-66
2021/12/07 14:36:32;;;;;;;0.00;0.00;;;4.40;99.90;;;;;;4940055;28;20039;-66
2021/12/07 14:39:09;;;;;;;0.00;0.00;;;4.40;99.90;;;;;;4957505;28;20493;-66
2021/12/07 14:42:00;;;;;;;0.15;0.15;;;5.10;99.90;;;;;;4916691;28;20090;-66
2021/12/07 14:44:29;;;;;;;0.00;0.00;;;4.30;99.90;;;;;;4932255;28;20047;-66
2021/12/07 14:46:57;;;;;;;0.00;0.00;;;4.20;99.90;;;;;;4939880;28;20283;-66
2021/12/07 14:49:25;;;;;;;0.10;0.10;;;4.30;99.90;;;;;;4931285;28;20799;-66
2021/12/07 14:51:51;;;;;;;0.00;0.00;;;4.20;99.90;;;;;;4939222;28;20552;-66